Holt (Pine Ridge), New South Wales

5:32 PM AEST on July 01, 2015 (GMT +1000)
Holt | | Change Station
CLOSE
Current Station
Personal Weather Station
Location: Canberra, AUSTRALIAN CAPITAL TERRITORY
Elevation: 1985 ft
Nearby Weather Stations

Elev 1985 ft 35.23 °S, 149.01 °E | Updated 2 minutes ago

Partly Cloudy
Partly Cloudy
41.0 °F
Feels Like 41 °F
N
0.0
Wind Variable Wind from North
Gusts 6.0 mph

Today
High -- | Low -- °F
--% Chance of Precip.
Yesterday
High -- | Low -- °F
Precip. -- in
7:13 AM 5:02 PM
Waxing Gibbous, 99% visible
Pressure 30.18 in
Visibility 6.2 miles
Clouds Few 3000 ft
Windchill 41 °F
Dew Point 33 °F
Humidity 73%
Rainfall 0.02 in
Snow Depth Not available.
UV 0 out of 12
Pollen Not available.
Air Quality Not available.
Flu Activity Not available.
METAR YSCB 010700Z 35009KT 9999 FEW030 07/01 Q1022 NOSIG

More Conditions Fewer Conditions

Pressure 30.18 in
Visibility 6.2 miles
Clouds Few 3000 ft
Windchill 41 °F
Dew Point 33 °F
Humidity 73%
Rainfall 0.02 in
Snow Depth Not available.
UV 0 out of 12
Pollen Not available.
Air Quality Not available.
Flu Activity Not available.
METAR YSCB 010700Z 35009KT 9999 FEW030 07/01 Q1022 NOSIG

More Conditions Fewer Conditions

10-Day Weather Forecast

×

Almanac

Astronomy

Jul. 01, 2015 Rise Set
Actual Time
Civil Twilight
Nautical Twilight
Astronomical Twilight
Moon
Length of Visible Light
Length of Day
Tomorrow will be .
, % of the Moon is Illuminated

Today's Extremes

Country Highs Country Lows

Community

WunderPhotos

Upload Photos

1,834,164 photos uploaded!

WunderBlogs® & News

Nearby

Air Quality

  Air Quality AQ Index Pollutant
Not available.

Snow Depth

Station Depth Elevation

Earthquake Activity

City Distance Mag. Time & Date
Minimum magnitude displayed is 2.5.

Coastal Water Temperatures

Place Temperature

Stations

Nearby Weather Stations

Station Location Temp. Windchill Dew Point Humidity Wind Precip. Elev Updated Type